Time;durP1;ratioP1;P1;durP2;ratioP2;P2;SDS_P1;SDS_P2;PMS_P1;PMS_P2;Temp;Humidity;BMP_temperature;BMP_pressure;BME280_temperature;BME280_humidity;BME280_pressure;Samples;Min_cycle;Max_cycle;Signal;HPM_P1;HPM_P2
2022/09/06 00:00:40;;;;;;;5.68;3.75;;;20.30;89.00;;;;;;5044230;28;20135;-70
2022/09/06 00:03:08;;;;;;;8.38;3.60;;;20.30;89.10;;;;;;5003646;28;1163282;-68
2022/09/06 00:05:36;;;;;;;7.25;3.67;;;20.20;89.20;;;;;;5048628;28;20088;-70
2022/09/06 00:08:03;;;;;;;7.07;4.18;;;20.20;89.10;;;;;;5050875;28;20056;-69
2022/09/06 00:10:30;;;;;;;10.90;4.03;;;20.20;89.20;;;;;;5048555;28;20037;-69
2022/09/06 00:13:00;;;;;;;8.93;4.13;;;20.20;89.40;;;;;;5048345;28;20072;-69
2022/09/06 00:15:26;;;;;;;9.82;3.85;;;20.20;89.50;;;;;;5049794;28;20061;-69
2022/09/06 00:17:52;;;;;;;12.65;4.72;;;20.10;89.40;;;;;;5050261;28;20041;-69
2022/09/06 00:20:18;;;;;;;9.52;4.43;;;20.10;89.60;;;;;;5049872;28;20033;-72
2022/09/06 00:22:43;;;;;;;8.57;3.85;;;20.10;89.70;;;;;;5048766;28;20567;-70
2022/09/06 00:25:09;;;;;;;7.15;3.70;;;20.10;89.80;;;;;;5049254;28;20206;-70
2022/09/06 00:27:35;;;;;;;5.20;3.88;;;20.00;89.70;;;;;;5049006;28;20064;-69
2022/09/06 00:30:03;;;;;;;10.25;4.45;;;20.00;90.00;;;;;;5047312;28;20128;-69
2022/09/06 00:32:29;;;;;;;7.35;3.83;;;19.90;90.00;;;;;;5047663;28;20045;-69
2022/09/06 00:34:54;;;;;;;12.13;4.10;;;19.90;90.10;;;;;;5049346;28;20476;-70
2022/09/06 00:37:20;;;;;;;11.38;4.10;;;19.90;90.10;;;;;;5051672;28;20090;-70
2022/09/06 00:39:46;;;;;;;12.40;4.38;;;19.80;90.40;;;;;;5048682;28;20060;-69
2022/09/06 00:42:12;;;;;;;12.23;4.35;;;19.80;90.20;;;;;;5051931;28;20479;-69
2022/09/06 00:44:38;;;;;;;8.20;4.32;;;19.70;90.20;;;;;;5050058;28;20037;-70
2022/09/06 00:47:06;;;;;;;10.60;3.80;;;19.80;90.30;;;;;;5051190;28;20056;-69
2022/09/06 00:49:38;;;;;;;10.65;4.40;;;19.70;90.40;;;;;;5058631;28;20041;-71
2022/09/06 00:52:08;;;;;;;7.85;3.95;;;19.70;90.70;;;;;;5051910;28;20075;-71
2022/09/06 00:54:34;;;;;;;9.35;3.78;;;19.60;90.40;;;;;;5052141;28;20056;-70
2022/09/06 00:57:00;;;;;;;7.07;4.22;;;19.60;90.60;;;;;;5052827;28;20658;-69
2022/09/06 00:59:32;;;;;;;13.30;3.95;;;19.50;90.50;;;;;;5053518;28;20037;-70
2022/09/06 01:01:58;;;;;;;10.63;4.25;;;19.50;90.60;;;;;;5050930;28;20435;-70
2022/09/06 01:04:25;;;;;;;7.28;3.85;;;19.50;90.50;;;;;;5051493;28;20044;-70
2022/09/06 01:07:12;;;;;;;7.00;3.70;;;19.50;90.60;;;;;;5048469;28;20036;-70
2022/09/06 01:09:52;;;;;;;8.10;4.00;;;19.50;90.60;;;;;;5049135;28;20044;-69
2022/09/06 01:12:21;;;;;;;7.05;3.63;;;19.50;90.60;;;;;;5048912;28;20487;-70
2022/09/06 01:15:24;;;;;;;9.35;4.47;;;19.50;90.60;;;;;;5051755;28;20388;-70
2022/09/06 01:18:23;;;;;;;7.50;3.88;;;19.40;90.70;;;;;;5052074;28;20132;-70
2022/09/06 01:21:00;;;;;;;8.85;3.97;;;19.40;90.60;;;;;;4983468;28;20060;-69
2022/09/06 01:23:56;;;;;;;10.70;3.97;;;19.50;90.70;;;;;;5051953;28;20052;-70
2022/09/06 01:26:59;;;;;;;11.85;4.00;;;19.40;90.70;;;;;;5029779;28;20049;-70
2022/09/06 01:29:53;;;;;;;5.07;3.53;;;19.50;90.90;;;;;;5048347;28;20448;-70
2022/09/06 01:32:41;;;;;;;7.97;4.28;;;19.50;90.90;;;;;;5039273;28;20079;-70
2022/09/06 01:35:33;;;;;;;6.22;3.92;;;19.40;90.80;;;;;;5048792;28;20041;-70
2022/09/06 01:38:00;;;;;;;5.63;4.15;;;19.40;90.90;;;;;;5052422;28;20134;-70
2022/09/06 01:40:27;;;;;;;8.32;4.13;;;19.30;90.90;;;;;;5047957;28;20045;-70
2022/09/06 01:42:53;;;;;;;5.15;4.03;;;19.30;91.00;;;;;;5051787;28;20045;-71
2022/09/06 01:45:24;;;;;;;10.82;4.20;;;19.30;91.00;;;;;;5046743;28;20052;-70
2022/09/06 01:47:55;;;;;;;7.70;4.00;;;19.30;91.10;;;;;;5050018;28;20092;-70
2022/09/06 01:50:36;;;;;;;7.45;4.47;;;19.30;91.10;;;;;;5051192;28;20045;-70
2022/09/06 01:53:16;;;;;;;6.30;4.32;;;19.30;91.20;;;;;;5049045;28;20049;-69
2022/09/06 01:55:57;;;;;;;7.03;4.18;;;19.20;91.20;;;;;;5050790;28;20044;-70
2022/09/06 01:58:28;;;;;;;7.20;4.07;;;19.20;91.30;;;;;;5051460;28;20053;-70
2022/09/06 02:01:02;;;;;;;5.65;3.95;;;19.20;91.30;;;;;;5048683;28;20112;-70
2022/09/06 02:03:35;;;;;;;7.60;3.88;;;19.20;91.30;;;;;;5042062;28;20512;-70
2022/09/06 02:06:17;;;;;;;11.27;4.80;;;19.20;91.30;;;;;;5046255;28;20128;-70
2022/09/06 02:09:11;;;;;;;11.00;4.00;;;19.20;91.40;;;;;;5033312;28;20048;-69
2022/09/06 02:11:52;;;;;;;6.35;3.80;;;19.20;91.40;;;;;;5025630;28;20533;-70
2022/09/06 02:14:30;;;;;;;7.78;4.20;;;19.20;91.40;;;;;;5052199;28;20133;-70
2022/09/06 02:16:57;;;;;;;7.73;4.17;;;19.20;91.50;;;;;;5061500;28;20049;-70
2022/09/06 02:19:30;;;;;;;;;;;19.20;91.60;;;;;;5052533;28;20045;-70
2022/09/06 02:21:57;;;;;;;9.77;4.18;;;19.20;91.80;;;;;;5053389;28;19927;-71
2022/09/06 02:24:30;;;;;;;12.00;4.65;;;19.10;91.60;;;;;;5051736;28;20132;-70
2022/09/06 02:26:56;;;;;;;6.93;3.90;;;19.10;91.60;;;;;;5051079;28;20099;-70
2022/09/06 02:29:22;;;;;;;8.07;4.35;;;19.10;91.60;;;;;;5050707;28;20408;-70
2022/09/06 02:32:02;;;;;;;6.90;4.28;;;19.10;91.60;;;;;;5051400;28;20124;-70
2022/09/06 02:34:28;;;;;;;5.40;4.05;;;19.10;91.90;;;;;;5047496;28;20041;-71
2022/09/06 02:36:54;;;;;;;6.78;4.18;;;19.10;91.70;;;;;;5052740;28;20094;-70
2022/09/06 02:39:20;;;;;;;5.05;4.15;;;19.10;91.70;;;;;;5050991;28;20033;-71
2022/09/06 02:41:47;;;;;;;5.38;3.92;;;19.10;91.70;;;;;;5051551;28;20091;-71
2022/09/06 02:44:13;;;;;;;7.55;4.30;;;19.10;91.70;;;;;;5048030;28;20047;-70
2022/09/06 02:46:39;;;;;;;11.30;4.28;;;19.10;91.70;;;;;;5047151;28;20102;-70
2022/09/06 02:49:05;;;;;;;9.57;4.05;;;19.10;91.70;;;;;;5051372;28;20041;-71
2022/09/06 02:51:38;;;;;;;6.88;4.47;;;19.10;91.80;;;;;;5046953;28;20043;-70
2022/09/06 02:54:05;;;;;;;6.97;4.35;;;19.00;91.80;;;;;;5048362;28;20040;-70
2022/09/06 02:56:32;;;;;;;6.40;4.40;;;19.00;91.80;;;;;;5051141;28;20396;-70
2022/09/06 02:58:58;;;;;;;4.80;4.03;;;19.00;91.90;;;;;;5050633;28;20124;-70
2022/09/06 03:01:25;;;;;;;9.70;4.40;;;19.00;91.90;;;;;;5049183;28;20607;-70
2022/09/06 03:03:50;;;;;;;6.72;4.28;;;19.00;91.90;;;;;;5050888;28;20438;-71
2022/09/06 03:06:16;;;;;;;9.88;4.63;;;19.00;92.00;;;;;;5050501;28;20120;-69
2022/09/06 03:08:42;;;;;;;6.93;4.38;;;19.00;92.10;;;;;;5048697;28;20037;-69
2022/09/06 03:11:07;;;;;;;10.40;4.68;;;18.90;92.10;;;;;;5049586;28;20076;-70
2022/09/06 03:13:33;;;;;;;7.90;4.20;;;18.90;92.10;;;;;;5045494;28;20047;-70
2022/09/06 03:15:59;;;;;;;8.40;4.57;;;18.90;92.20;;;;;;5048093;28;20563;-70
2022/09/06 03:18:27;;;;;;;9.80;4.70;;;18.90;92.30;;;;;;5048076;28;20040;-70
2022/09/06 03:20:53;;;;;;;;;;;18.80;92.40;;;;;;5050122;28;20071;-69
2022/09/06 03:23:22;;;;;;;8.50;4.80;;;18.80;92.50;;;;;;5048570;28;19987;-70
2022/09/06 03:25:49;;;;;;;10.48;4.68;;;18.80;92.40;;;;;;5049443;28;20044;-70
2022/09/06 03:28:17;;;;;;;8.68;4.78;;;18.70;92.60;;;;;;5048026;28;20079;-70
2022/09/06 03:30:47;;;;;;;7.93;5.20;;;18.70;92.80;;;;;;5045922;28;20652;-70
2022/09/06 03:33:14;;;;;;;9.02;5.28;;;18.70;93.00;;;;;;5049833;28;20126;-70
2022/09/06 03:35:40;;;;;;;6.78;5.32;;;18.70;93.20;;;;;;5050409;28;20036;-70
2022/09/06 03:38:06;;;;;;;8.52;4.65;;;18.70;93.30;;;;;;5049740;28;20048;-70
2022/09/06 03:40:32;;;;;;;10.02;4.90;;;18.60;93.40;;;;;;5044344;28;20037;-70
2022/09/06 03:42:58;;;;;;;8.55;5.25;;;18.60;93.60;;;;;;5049045;28;20037;-70
2022/09/06 03:45:24;;;;;;;7.07;5.18;;;18.60;93.60;;;;;;5047878;28;20076;-71
2022/09/06 03:47:49;;;;;;;9.98;5.43;;;18.50;93.70;;;;;;5046697;28;20088;-71
2022/09/06 03:50:15;;;;;;;7.63;5.25;;;18.50;93.70;;;;;;5048960;28;20028;-70
2022/09/06 03:52:41;;;;;;;18.02;5.57;;;18.50;93.80;;;;;;5047517;28;20078;-69
2022/09/06 03:55:07;;;;;;;8.82;5.32;;;18.40;94.00;;;;;;5050242;28;20033;-70
2022/09/06 03:57:32;;;;;;;10.95;5.15;;;18.40;94.00;;;;;;5050516;28;20049;-70
2022/09/06 03:59:58;;;;;;;7.47;5.05;;;18.40;94.10;;;;;;5049076;28;20056;-70
2022/09/06 04:02:24;;;;;;;9.07;5.35;;;18.40;94.00;;;;;;5047287;28;20037;-70
2022/09/06 04:04:54;;;;;;;9.15;5.18;;;18.30;94.10;;;;;;5050094;28;20079;-70
2022/09/06 04:07:21;;;;;;;7.72;5.43;;;18.30;94.30;;;;;;5048942;28;20047;-70
2022/09/06 04:09:46;;;;;;;8.73;5.47;;;18.30;94.30;;;;;;5050586;28;20103;-69
2022/09/06 04:12:12;;;;;;;12.00;5.60;;;18.30;94.60;;;;;;5045918;28;20516;-70
2022/09/06 04:14:37;;;;;;;6.35;5.30;;;18.30;94.50;;;;;;5044078;28;20060;-70
2022/09/06 04:17:03;;;;;;;8.23;6.20;;;18.30;94.70;;;;;;5050064;28;20048;-70
2022/09/06 04:19:29;;;;;;;6.57;5.88;;;18.20;94.80;;;;;;5049622;28;20075;-70
2022/09/06 04:21:54;;;;;;;7.43;6.03;;;18.20;94.90;;;;;;5048807;28;20044;-70
2022/09/06 04:24:20;;;;;;;10.77;6.22;;;18.20;94.90;;;;;;5046276;28;20041;-70
2022/09/06 04:26:46;;;;;;;9.63;5.60;;;18.20;95.00;;;;;;5050274;28;20571;-70
2022/09/06 04:29:11;;;;;;;9.80;6.22;;;18.20;95.00;;;;;;5049020;28;20094;-69
2022/09/06 04:31:37;;;;;;;9.55;5.65;;;18.20;95.40;;;;;;5048765;28;20045;-70
2022/09/06 04:34:03;;;;;;;8.00;5.95;;;18.20;95.20;;;;;;5049850;28;20053;-70
2022/09/06 04:36:29;;;;;;;8.30;6.22;;;18.20;95.20;;;;;;5046063;28;20044;-70
2022/09/06 04:38:54;;;;;;;11.75;6.45;;;18.20;95.30;;;;;;5047706;28;20114;-70
2022/09/06 04:41:21;;;;;;;9.05;6.43;;;18.20;95.40;;;;;;5031001;28;20607;-70
2022/09/06 04:43:46;;;;;;;8.27;5.82;;;18.20;95.40;;;;;;5046082;28;20417;-70
2022/09/06 04:46:25;;;;;;;6.82;5.68;;;18.20;95.40;;;;;;5050032;28;20041;-70
2022/09/06 04:48:52;;;;;;;8.07;5.78;;;18.20;95.60;;;;;;5032532;28;20041;-70
2022/09/06 04:51:18;;;;;;;12.02;6.22;;;18.20;95.60;;;;;;5047638;28;20439;-71
2022/09/06 04:53:44;;;;;;;9.27;6.28;;;18.20;95.60;;;;;;5047213;28;20583;-70
2022/09/06 04:56:16;;;;;;;8.80;6.05;;;18.20;95.80;;;;;;5048494;28;20505;-70
2022/09/06 04:58:43;;;;;;;10.55;6.20;;;18.20;95.80;;;;;;5048842;28;20041;-70
2022/09/06 05:01:09;;;;;;;10.00;5.73;;;18.30;95.80;;;;;;5049233;28;20099;-71
2022/09/06 05:03:35;;;;;;;9.25;6.30;;;18.30;95.80;;;;;;5046974;28;20052;-70
2022/09/06 05:06:10;;;;;;;9.73;6.22;;;18.30;96.00;;;;;;5048893;28;20049;-71
2022/09/06 05:08:40;;;;;;;10.02;6.78;;;18.30;96.20;;;;;;5048384;28;20090;-70
2022/09/06 05:11:07;;;;;;;8.38;6.78;;;18.30;96.30;;;;;;5050266;28;20044;-70
2022/09/06 05:13:33;;;;;;;9.95;7.00;;;18.30;96.40;;;;;;5049592;28;20488;-70
2022/09/06 05:16:01;;;;;;;10.18;6.95;;;18.30;96.90;;;;;;5048238;28;20061;-71
2022/09/06 05:18:26;;;;;;;8.82;6.80;;;18.30;97.20;;;;;;5050791;28;20082;-71
2022/09/06 05:20:53;;;;;;;12.68;7.00;;;18.30;97.30;;;;;;5046449;28;20041;-70
2022/09/06 05:23:20;;;;;;;13.05;7.43;;;18.30;97.60;;;;;;5048979;28;20049;-71
2022/09/06 05:25:46;;;;;;;8.82;6.65;;;18.30;97.70;;;;;;5050470;28;20029;-70
2022/09/06 05:28:11;;;;;;;11.20;6.57;;;18.30;97.90;;;;;;5052217;28;20037;-71
2022/09/06 05:30:37;;;;;;;8.80;6.80;;;18.30;98.00;;;;;;5052518;28;20045;-71
2022/09/06 05:33:06;;;;;;;10.15;7.20;;;18.30;98.30;;;;;;5053717;28;20439;-70
2022/09/06 05:35:32;;;;;;;10.85;7.40;;;18.30;98.20;;;;;;5065359;28;20037;-70
2022/09/06 05:37:58;;;;;;;12.02;6.85;;;18.30;98.20;;;;;;5047168;28;20142;-71
2022/09/06 05:40:23;;;;;;;12.75;7.78;;;18.30;98.20;;;;;;5049561;28;20055;-69
2022/09/06 05:42:49;;;;;;;11.38;9.05;;;18.40;98.40;;;;;;5050678;28;20489;-71
2022/09/06 05:45:15;;;;;;;12.68;7.38;;;18.30;98.30;;;;;;5048034;28;20037;-71
2022/09/06 05:47:41;;;;;;;9.73;7.68;;;18.40;98.20;;;;;;5048230;28;20079;-70
2022/09/06 05:50:07;;;;;;;11.88;7.45;;;18.40;98.40;;;;;;5051388;28;20072;-70
2022/09/06 05:52:34;;;;;;;13.48;7.65;;;18.40;98.50;;;;;;5048229;28;20052;-70
2022/09/06 05:55:00;;;;;;;12.52;7.32;;;18.50;98.70;;;;;;5050189;28;20033;-71
2022/09/06 05:57:26;;;;;;;14.52;7.65;;;18.50;98.80;;;;;;5046000;28;20033;-70
2022/09/06 05:59:54;;;;;;;11.13;7.57;;;18.60;99.00;;;;;;5034628;28;20110;-70
2022/09/06 06:02:21;;;;;;;12.50;7.88;;;18.60;98.90;;;;;;5049689;28;20484;-70
2022/09/06 06:04:47;;;;;;;9.60;7.87;;;18.60;99.10;;;;;;5053662;28;20049;-70
2022/09/06 06:07:13;;;;;;;13.23;7.07;;;18.60;99.10;;;;;;5053247;28;20041;-70
2022/09/06 06:09:40;;;;;;;12.07;7.70;;;18.60;99.20;;;;;;5045377;28;20448;-69
2022/09/06 06:12:06;;;;;;;8.50;7.60;;;18.60;99.40;;;;;;5040024;28;20124;-69
2022/09/06 06:14:32;;;;;;;13.18;8.30;;;18.60;99.40;;;;;;5045404;28;20044;-69
2022/09/06 06:16:58;;;;;;;13.95;8.35;;;18.60;99.50;;;;;;5043824;28;20040;-70
2022/09/06 06:19:25;;;;;;;17.25;8.27;;;18.70;99.60;;;;;;5052418;28;20389;-70
2022/09/06 06:21:51;;;;;;;16.55;8.18;;;18.60;99.60;;;;;;5053489;28;20048;-70
2022/09/06 06:24:17;;;;;;;13.30;8.20;;;18.60;99.70;;;;;;5050659;28;20139;-70
2022/09/06 06:26:43;;;;;;;10.63;8.63;;;18.60;99.70;;;;;;5050871;28;20144;-70
2022/09/06 06:29:08;;;;;;;10.80;8.10;;;18.70;99.70;;;;;;5046662;28;20465;-69
2022/09/06 06:31:36;;;;;;;13.02;8.30;;;18.70;99.70;;;;;;5048299;28;20124;-70
2022/09/06 06:34:03;;;;;;;13.50;8.60;;;18.70;99.80;;;;;;5046141;28;20041;-69
2022/09/06 06:36:30;;;;;;;10.57;8.40;;;18.70;99.80;;;;;;5049171;28;20060;-70
2022/09/06 06:38:56;;;;;;;10.88;8.63;;;18.70;99.80;;;;;;5051983;28;20077;-69
2022/09/06 06:41:25;;;;;;;11.43;8.80;;;18.70;99.80;;;;;;5051883;28;20044;-69
2022/09/06 06:43:52;;;;;;;14.40;9.52;;;18.70;99.80;;;;;;5048356;28;20045;-69
2022/09/06 06:46:19;;;;;;;15.43;8.88;;;18.70;99.80;;;;;;5048922;28;20477;-70
2022/09/06 06:48:45;;;;;;;18.70;9.18;;;18.70;99.80;;;;;;5050252;28;20045;-70
2022/09/06 06:51:19;;;;;;;14.00;9.30;;;18.70;99.90;;;;;;5046785;28;20041;-70
2022/09/06 06:53:46;;;;;;;12.35;8.88;;;18.70;99.90;;;;;;5031760;28;20037;-70
2022/09/06 06:56:20;;;;;;;11.38;8.95;;;18.70;99.90;;;;;;5045580;28;20742;-71
2022/09/06 06:58:48;;;;;;;16.00;9.38;;;18.70;99.90;;;;;;5042374;28;20049;-70
2022/09/06 07:01:18;;;;;;;;;;;18.70;99.90;;;;;;5052410;28;20053;-71
2022/09/06 07:03:44;;;;;;;13.93;9.68;;;18.70;99.90;;;;;;5044455;28;19921;-70
2022/09/06 07:06:10;;;;;;;12.70;9.27;;;18.80;99.90;;;;;;5050703;28;20056;-71
2022/09/06 07:08:38;;;;;;;18.52;10.05;;;18.80;99.90;;;;;;5051603;28;20033;-71
2022/09/06 07:11:10;;;;;;;10.40;9.30;;;18.80;99.90;;;;;;5049674;28;20105;-71
2022/09/06 07:13:35;;;;;;;19.75;9.60;;;18.90;99.90;;;;;;5050098;28;20100;-70
2022/09/06 07:16:18;;;;;;;13.10;9.57;;;18.90;99.90;;;;;;5052324;28;20477;-70
2022/09/06 07:18:44;;;;;;;16.75;9.20;;;19.00;99.90;;;;;;5051930;28;20052;-70
2022/09/06 07:21:11;;;;;;;20.45;9.18;;;19.10;99.90;;;;;;5048595;28;20068;-71
2022/09/06 07:23:36;;;;;;;16.50;9.45;;;19.20;99.90;;;;;;5052054;28;20151;-71
2022/09/06 07:26:02;;;;;;;15.15;9.77;;;19.30;99.90;;;;;;5048181;28;20045;-71
2022/09/06 07:28:28;;;;;;;14.25;10.40;;;19.40;99.90;;;;;;5050096;28;20056;-71
2022/09/06 07:30:55;;;;;;;12.57;9.98;;;19.50;99.90;;;;;;5050072;28;20044;-71
2022/09/06 07:33:20;;;;;;;13.63;9.68;;;19.70;99.90;;;;;;5051163;28;20037;-70
2022/09/06 07:36:00;;;;;;;16.73;9.35;;;19.90;99.50;;;;;;5047344;28;20047;-70
2022/09/06 07:38:27;;;;;;;12.55;9.32;;;19.90;99.00;;;;;;5048814;28;20802;-70
2022/09/06 07:41:07;;;;;;;15.63;10.45;;;19.90;98.90;;;;;;5047665;28;20048;-71
2022/09/06 07:43:33;;;;;;;18.17;9.82;;;19.90;98.70;;;;;;5033377;28;20570;-70
2022/09/06 07:45:59;;;;;;;12.90;10.45;;;19.90;98.70;;;;;;5047056;28;20092;-70
2022/09/06 07:48:28;;;;;;;11.57;9.95;;;20.00;98.60;;;;;;5053102;28;20081;-71
2022/09/06 07:50:54;;;;;;;15.77;9.82;;;20.10;98.40;;;;;;5051872;28;20395;-71
2022/09/06 07:53:19;;;;;;;16.23;9.57;;;20.40;98.30;;;;;;5052081;28;20052;-71
2022/09/06 07:55:45;;;;;;;15.63;9.93;;;20.40;97.60;;;;;;5050725;28;20127;-72
2022/09/06 07:58:11;;;;;;;12.02;10.18;;;20.40;97.40;;;;;;5047682;28;20045;-71
2022/09/06 08:00:39;;;;;;;13.32;9.60;;;20.30;97.40;;;;;;5050341;28;20490;-71
2022/09/06 08:03:05;;;;;;;16.10;10.30;;;20.30;97.50;;;;;;5046033;28;20057;-71
2022/09/06 08:05:31;;;;;;;14.93;9.73;;;20.40;97.60;;;;;;5041043;28;20079;-70
2022/09/06 08:07:57;;;;;;;21.67;10.35;;;20.60;97.60;;;;;;5048568;28;20048;-72
2022/09/06 08:10:22;;;;;;;17.95;10.38;;;20.90;97.40;;;;;;5032568;28;20469;-71
2022/09/06 08:12:52;;;;;;;13.48;10.05;;;21.20;97.00;;;;;;5031347;28;20049;-70
2022/09/06 08:15:17;;;;;;;13.57;9.77;;;21.50;96.70;;;;;;5048045;28;20049;-71
2022/09/06 08:17:47;;;;;;;13.02;9.75;;;21.80;96.30;;;;;;5047186;28;20037;-70
2022/09/06 08:20:13;;;;;;;11.43;8.85;;;22.00;95.70;;;;;;5032789;28;20041;-71
2022/09/06 08:22:39;;;;;;;14.00;9.25;;;22.20;95.50;;;;;;5047798;28;20558;-70
2022/09/06 08:25:05;;;;;;;14.88;9.80;;;22.30;94.90;;;;;;5038958;28;20034;-70
2022/09/06 08:27:30;;;;;;;17.35;9.20;;;22.40;94.50;;;;;;5032235;28;20041;-70
2022/09/06 08:29:56;;;;;;;11.50;8.98;;;22.40;94.30;;;;;;5034657;28;20057;-71
2022/09/06 08:32:22;;;;;;;15.60;9.60;;;22.60;94.20;;;;;;5048297;28;20147;-70
2022/09/06 08:34:48;;;;;;;12.65;8.93;;;22.70;93.90;;;;;;5052802;28;20199;-69
2022/09/06 08:37:14;;;;;;;20.60;10.95;;;22.80;93.70;;;;;;5051995;28;20507;-70
2022/09/06 08:39:40;;;;;;;15.90;10.02;;;22.90;93.40;;;;;;5050661;28;20041;-70
2022/09/06 08:42:07;;;;;;;14.30;9.00;;;23.00;93.20;;;;;;5033293;28;20056;-70
2022/09/06 08:44:51;;;;;;;15.95;8.93;;;23.10;93.00;;;;;;5051398;28;20045;-71
2022/09/06 08:47:19;;;;;;;12.30;9.25;;;23.30;92.80;;;;;;5051925;28;20033;-70
2022/09/06 08:49:48;;;;;;;16.52;9.02;;;23.40;92.70;;;;;;5051416;28;20048;-69
2022/09/06 08:52:22;;;;;;;14.55;9.43;;;23.50;92.50;;;;;;5050679;28;20518;-69
2022/09/06 08:55:24;;;;;;;17.15;9.13;;;23.70;92.30;;;;;;5052504;28;20041;-70
2022/09/06 08:58:16;;;;;;;12.90;8.98;;;23.90;92.20;;;;;;5050330;28;20076;-70
2022/09/06 09:00:57;;;;;;;11.82;8.63;;;24.10;91.80;;;;;;5055020;28;20545;-70
2022/09/06 09:03:31;;;;;;;11.23;7.70;;;24.20;91.60;;;;;;5054832;28;20059;-70
2022/09/06 09:05:58;;;;;;;11.68;7.93;;;24.40;91.60;;;;;;5046566;28;20452;-70
2022/09/06 09:08:46;;;;;;;13.13;8.40;;;24.40;91.30;;;;;;5055259;28;20052;-70
2022/09/06 09:11:21;;;;;;;14.50;8.37;;;24.50;91.00;;;;;;5049574;28;20465;-70
2022/09/06 09:14:11;;;;;;;13.20;8.48;;;24.50;90.80;;;;;;5053576;28;20055;-70
2022/09/06 09:16:36;;;;;;;15.48;8.75;;;24.60;90.70;;;;;;5052317;28;20048;-71
2022/09/06 09:19:04;;;;;;;13.32;8.35;;;24.80;90.50;;;;;;5054428;28;20033;-70
2022/09/06 09:21:36;;;;;;;12.25;7.68;;;24.80;90.30;;;;;;5054606;28;20040;-71
2022/09/06 09:24:07;;;;;;;18.92;8.77;;;24.70;90.30;;;;;;5053023;28;20033;-71
2022/09/06 09:27:09;;;;;;;12.95;8.52;;;24.60;90.10;;;;;;5052432;28;20057;-70
2022/09/06 09:29:53;;;;;;;13.32;8.30;;;24.60;90.50;;;;;;5044075;28;20041;-70
2022/09/06 09:32:39;;;;;;;14.95;7.80;;;24.60;90.30;;;;;;5053553;28;20083;-72
2022/09/06 09:35:26;;;;;;;16.83;8.70;;;24.80;90.50;;;;;;5055007;28;20057;-68
2022/09/06 09:38:03;;;;;;;14.88;9.05;;;25.10;90.20;;;;;;5061368;28;20448;-70
2022/09/06 09:40:37;;;;;;;15.35;8.93;;;25.40;89.40;;;;;;5054175;28;20057;-70
2022/09/06 09:43:12;;;;;;;19.80;9.55;;;25.40;88.90;;;;;;5054119;28;20060;-70
2022/09/06 09:45:37;;;;;;;17.08;9.43;;;25.40;88.90;;;;;;5051127;28;20045;-71
2022/09/06 09:48:26;;;;;;;12.48;8.75;;;25.40;88.60;;;;;;5052921;28;20052;-71
2022/09/06 09:50:52;;;;;;;14.10;9.25;;;25.50;87.90;;;;;;5053500;28;20496;-70
2022/09/06 09:53:21;;;;;;;18.38;9.55;;;25.30;88.00;;;;;;5054445;28;20211;-70
2022/09/06 09:55:54;;;;;;;11.90;8.98;;;25.00;88.10;;;;;;5053359;28;20053;-70
2022/09/06 09:58:30;;;;;;;13.15;9.32;;;24.90;88.80;;;;;;5053602;28;20037;-72
2022/09/06 10:01:22;;;;;;;15.05;8.65;;;25.00;89.00;;;;;;5053019;28;20127;-71
2022/09/06 10:03:50;;;;;;;13.85;9.00;;;25.30;89.50;;;;;;5045835;28;20693;-70
2022/09/06 10:06:25;;;;;;;14.88;9.07;;;25.50;89.90;;;;;;5053213;28;20131;-71
2022/09/06 10:08:51;;;;;;;17.23;9.25;;;25.70;88.60;;;;;;5056130;28;20041;-70
2022/09/06 10:11:37;;;;;;;16.50;9.68;;;25.70;88.40;;;;;;5054551;28;20488;-71
2022/09/06 10:14:30;;;;;;;15.10;8.70;;;25.70;87.00;;;;;;5053187;28;20045;-72
2022/09/06 10:16:58;;;;;;;17.42;8.52;;;25.90;86.50;;;;;;5055075;28;20512;-71
2022/09/06 10:19:38;;;;;;;12.02;8.20;;;26.00;87.70;;;;;;5037174;28;20439;-71
2022/09/06 10:22:18;;;;;;;11.80;7.85;;;26.30;86.80;;;;;;5052523;28;20036;-71
2022/09/06 10:25:35;;;;;;;10.48;8.02;;;26.50;86.70;;;;;;5046095;28;20042;-69
2022/09/06 10:28:18;;;;;;;9.82;8.55;;;26.70;84.90;;;;;;5034249;28;20075;-69
2022/09/06 10:30:59;;;;;;;10.85;7.90;;;26.80;85.20;;;;;;5034190;28;20049;-70
2022/09/06 10:33:46;;;;;;;11.48;8.40;;;26.90;84.40;;;;;;5047989;28;20423;-70
2022/09/06 10:36:16;;;;;;;11.05;7.88;;;27.10;84.10;;;;;;5051713;28;20076;-71
2022/09/06 10:39:02;;;;;;;10.43;7.90;;;27.20;84.50;;;;;;5051042;28;20041;-70
2022/09/06 10:41:54;;;;;;;10.82;7.13;;;27.30;83.00;;;;;;5052067;28;20048;-71
2022/09/06 10:44:22;;;;;;;11.82;7.93;;;27.50;83.40;;;;;;5045775;28;20053;-69
2022/09/06 10:46:58;;;;;;;8.25;7.45;;;27.40;82.70;;;;;;5051122;28;20128;-70
2022/09/06 10:49:24;;;;;;;19.38;8.68;;;27.60;83.00;;;;;;5053042;28;20143;-70
2022/09/06 10:51:56;;;;;;;13.07;8.65;;;27.50;82.50;;;;;;5050938;28;20131;-70
2022/09/06 10:54:23;;;;;;;10.25;8.35;;;27.70;82.00;;;;;;5052666;28;20148;-70
2022/09/06 10:56:49;;;;;;;15.68;8.30;;;27.90;81.60;;;;;;5051934;28;20118;-71
2022/09/06 10:59:47;;;;;;;11.87;7.73;;;28.00;81.10;;;;;;5031699;28;20060;-72
2022/09/06 11:02:46;;;;;;;12.18;8.43;;;28.30;80.60;;;;;;5048358;28;20100;-70
2022/09/06 11:05:24;;;;;;;16.67;7.07;;;28.60;79.60;;;;;;5045412;28;20391;-70
2022/09/06 11:08:15;;;;;;;11.23;7.22;;;28.80;78.60;;;;;;5052079;28;20110;-70
2022/09/06 11:10:44;;;;;;;13.45;7.70;;;29.10;78.70;;;;;;5050625;28;20053;-70
2022/09/06 11:13:18;;;;;;;12.50;7.28;;;29.30;78.00;;;;;;5049896;28;20057;-71
2022/09/06 11:16:03;;;;;;;15.25;7.45;;;29.50;76.60;;;;;;5050259;28;20455;-70
2022/09/06 11:18:49;;;;;;;8.35;7.13;;;29.60;77.20;;;;;;5052073;28;20068;-71
2022/09/06 11:22:00;;;;;;;8.45;7.18;;;29.60;76.60;;;;;;5049514;28;20494;-70
2022/09/06 11:24:26;;;;;;;12.73;7.78;;;29.60;75.00;;;;;;5051745;28;20116;-72
2022/09/06 11:27:26;;;;;;;11.40;7.07;;;29.60;76.20;;;;;;5051966;28;20071;-72
2022/09/06 11:29:56;;;;;;;11.35;7.20;;;29.70;75.30;;;;;;5049723;28;20052;-71
2022/09/06 11:32:31;;;;;;;12.23;6.90;;;29.70;75.40;;;;;;5047787;28;20037;-71
2022/09/06 11:35:00;;;;;;;13.43;6.95;;;29.70;75.40;;;;;;5048409;28;20047;-71
2022/09/06 11:37:33;;;;;;;8.65;6.97;;;29.80;75.30;;;;;;5047077;28;20463;-72
2022/09/06 11:40:06;;;;;;;16.27;6.95;;;29.90;74.80;;;;;;5050793;28;20052;-71
2022/09/06 11:43:02;;;;;;;11.02;5.57;;;29.60;74.10;;;;;;5049508;28;20045;-72
2022/09/06 11:45:49;;;;;;;12.85;6.35;;;29.60;73.30;;;;;;5049499;28;20067;-71
2022/09/06 11:48:32;;;;;;;7.97;5.20;;;29.60;73.60;;;;;;5049718;28;20049;-71
2022/09/06 11:50:58;;;;;;;9.63;5.35;;;29.30;72.80;;;;;;5051122;28;20060;-71
2022/09/06 11:53:51;;;;;;;10.60;5.43;;;28.90;73.50;;;;;;5049135;28;20041;-71
2022/09/06 11:56:48;;;;;;;10.55;5.05;;;28.70;73.50;;;;;;5045027;28;20438;-70
2022/09/06 11:59:20;;;;;;;9.18;5.78;;;28.30;73.90;;;;;;5023172;28;20061;-71
2022/09/06 12:01:54;;;;;;;14.25;5.53;;;28.00;74.60;;;;;;5044623;28;20439;-71
2022/09/06 12:04:21;;;;;;;9.60;5.03;;;28.00;75.50;;;;;;5048464;28;20081;-71
2022/09/06 12:07:06;;;;;;;;;;;28.00;74.90;;;;;;5048369;28;20106;-70
2022/09/06 12:09:33;;;;;;;10.95;5.13;;;28.40;75.80;;;;;;5051401;28;19921;-71
2022/09/06 12:12:00;;;;;;;8.52;5.47;;;28.90;75.30;;;;;;5067903;28;20041;-71
2022/09/06 12:14:39;;;;;;;8.05;4.88;;;29.20;73.90;;;;;;5051323;28;20037;-72
2022/09/06 12:17:06;;;;;;;9.38;5.25;;;29.70;73.00;;;;;;5051988;28;20073;-71
2022/09/06 12:20:05;;;;;;;10.13;5.50;;;30.00;72.60;;;;;;5049681;28;20132;-70
2022/09/06 12:22:31;;;;;;;7.07;4.47;;;30.20;71.80;;;;;;5051010;28;20041;-72
2022/09/06 12:25:04;;;;;;;10.02;5.18;;;30.30;71.70;;;;;;5049638;28;20103;-71
2022/09/06 12:27:43;;;;;;;13.40;5.78;;;30.30;71.30;;;;;;5050419;28;20558;-71
2022/09/06 12:30:11;;;;;;;12.25;4.88;;;30.60;70.90;;;;;;5048950;28;20037;-71
2022/09/06 12:32:42;;;;;;;9.48;5.13;;;30.90;70.90;;;;;;5047679;28;20033;-71
2022/09/06 12:35:19;;;;;;;8.38;4.70;;;31.20;70.40;;;;;;5047839;28;20037;-70
2022/09/06 12:38:05;;;;;;;10.40;5.53;;;31.50;69.80;;;;;;5054205;28;20166;-71
2022/09/06 12:40:42;;;;;;;7.50;4.82;;;31.40;69.70;;;;;;5050102;28;20072;-71
2022/09/06 12:43:11;;;;;;;10.38;4.80;;;31.60;69.30;;;;;;5051684;28;20037;-71
2022/09/06 12:45:42;;;;;;;11.50;4.47;;;31.70;69.00;;;;;;5054246;28;20064;-71
2022/09/06 12:48:23;;;;;;;15.75;4.68;;;31.80;68.70;;;;;;5051470;28;20147;-71
2022/09/06 12:51:03;;;;;;;9.23;4.97;;;32.00;68.30;;;;;;5047982;28;20049;-71
2022/09/06 12:53:30;;;;;;;7.97;4.43;;;31.80;67.20;;;;;;5053442;28;20063;-72
2022/09/06 12:56:26;;;;;;;18.48;5.43;;;31.70;67.70;;;;;;5045280;28;20048;-70
2022/09/06 12:58:53;;;;;;;14.00;5.18;;;31.50;67.70;;;;;;5045197;28;20080;-72
2022/09/06 13:01:31;;;;;;;13.40;4.90;;;31.60;68.10;;;;;;5050930;28;20033;-71
2022/09/06 13:04:10;;;;;;;13.07;5.05;;;31.50;68.00;;;;;;5031297;28;20053;-70